Latest Weather Observations for Townsville

IDQ60801

Issued at 2:22 pm EST Tuesday 11 December 2018 (issued every 10 minutes, with the page automatically refreshed every 10 minutes)

About weather observations | Map of weather stations | Latest weather observations for QLD | Other Formats
Station Details ID: 032040 Name: TOWNSVILLE AERO Lat: -19.25 Lon: 146.77 Height: 4.34 m
Data from the previous 72 hours. | See also: Recent months at Townsville
Date/Time
EST
Temp
°C
App
Temp
°C
Dew
Point
°C
Rel
Hum
%
Delta-T
°C
Wind Press
QNH
hPa
Press
MSL
hPa
Rain since
9am
mm
Dir  Spd
km/h
Gust
km/h
Spd
kts
Gust
kts
11/02:00pm 28.1 29.5 23.6 76 3.1 ESE 22 30 12 16 1008.9 1008.8 0.2
11/01:30pm 27.9 29.8 23.8 78 2.8 ENE 20 28 11 15 1009.2 1009.1 0.0
11/01:00pm 28.3 29.3 23.5 75 3.3 E 24 32 13 17 1009.6 1009.5 0.0
11/12:30pm 28.0 29.0 23.5 76 3.1 E 24 35 13 19 1009.9 1009.8 0.0
11/12:00pm 27.3 30.7 24.0 82 2.3 E 13 17 7 9 1010.5 1010.4 0.0
11/11:30am 27.1 29.4 23.4 80 2.5 ESE 17 26 9 14 1010.9 1010.8 0.0
11/11:00am 27.1 29.2 23.8 82 2.3 ESE 19 24 10 13 1011.2 1011.1 0.0
11/10:30am 27.1 29.0 23.8 82 2.3 ESE 20 30 11 16 1011.6 1011.5 0.0
11/10:00am 26.7 28.5 23.3 81 2.3 ESE 19 28 10 15 1012.0 1011.9 0.0
11/09:30am 26.6 28.5 23.5 83 2.1 ESE 19 28 10 15 1011.7 1011.6 0.0
11/09:00am 27.2 28.3 23.7 81 2.4 ESE 24 33 13 18 1011.6 1011.5 50.8
11/08:30am 26.7 28.5 23.6 83 2.1 ESE 20 28 11 15 1011.4 1011.3 50.8
11/08:00am 26.4 28.9 23.8 85 1.8 ESE 17 28 9 15 1011.5 1011.4 50.8
11/07:30am 26.0 28.1 23.8 88 1.5 ESE 19 26 10 14 1011.2 1011.1 50.8
11/07:00am 25.5 27.9 23.7 90 1.2 SE 17 22 9 12 1010.8 1010.7 50.8
11/06:30am 25.1 27.9 23.6 91 1.0 SE 15 20 8 11 1010.5 1010.4 50.8
11/06:00am 25.0 27.4 23.7 92 0.9 ESE 17 22 9 12 1010.0 1009.9 50.8
11/05:30am 24.9 27.5 23.9 94 0.7 SE 17 26 9 14 1009.7 1009.6 50.8
11/05:00am 24.7 27.3 24.0 96 0.5 SE 17 22 9 12 1009.3 1009.2 50.8
11/04:46am 24.7 26.7 24.0 96 0.5 SE 20 26 11 14 1009.3 1009.2 50.8
11/04:30am 24.6 25.5 24.0 96 0.4 SE 26 33 14 18 1009.0 1008.9 50.6
11/04:19am 24.8 27.0 23.9 95 0.6 SE 19 30 10 16 1009.1 1009.0 45.6
11/04:00am 24.9 27.1 23.9 94 0.7 SE 19 28 10 15 1008.8 1008.7 43.8
11/03:36am 24.9 27.1 23.9 94 0.7 SE 19 26 10 14 1008.8 1008.7 43.6
11/03:30am 24.8 27.0 23.9 95 0.6 SE 19 28 10 15 1008.8 1008.7 43.6
11/03:04am 24.6 28.0 24.0 96 0.4 ESE 13 24 7 13 1008.9 1008.8 43.6
11/03:00am 24.6 28.0 24.0 96 0.4 ESE 13 19 7 10 1008.9 1008.8 43.6
11/02:57am 24.6 27.6 24.0 96 0.4 ESE 15 24 8 13 1008.9 1008.8 43.6
11/02:35am 24.6 27.2 24.0 96 0.4 SE 17 24 9 13 1008.9 1008.8 40.8
11/02:30am 24.7 27.3 24.0 96 0.5 ESE 17 22 9 12 1008.9 1008.8 40.6
11/02:18am 24.7 26.3 23.8 95 0.6 SE 22 28 12 15 1008.9 1008.8 40.4
11/02:13am 24.7 26.4 24.0 96 0.5 SE 22 28 12 15 1008.9 1008.8 40.4
11/02:00am 24.9 26.9 24.0 95 0.6 SE 20 26 11 14 1009.0 1008.9 40.2
11/01:51am 24.9 26.9 24.0 95 0.6 ESE 20 30 11 16 1009.0 1008.9 40.2
11/01:34am 25.0 26.7 24.1 95 0.6 ESE 22 30 12 16 1008.9 1008.8 40.0
11/01:30am 25.1 26.8 24.1 94 0.7 ESE 22 30 12 16 1008.9 1008.8 39.6
11/01:20am 25.0 27.1 24.1 95 0.6 ESE 20 33 11 18 1009.0 1008.9 39.6
11/01:16am 25.0 26.7 24.1 95 0.6 ESE 22 35 12 19 1009.1 1009.0 39.6
11/01:00am 24.9 27.1 24.2 96 0.5 SE 20 28 11 15 1009.3 1009.2 38.8
11/12:33am 25.0 28.1 24.1 95 0.6 SE 15 24 8 13 1009.7 1009.6 35.2
11/12:30am 25.0 27.7 24.1 95 0.6 SE 17 26 9 14 1009.7 1009.6 35.2
11/12:00am 25.1 27.4 24.1 94 0.7 ESE 19 26 10 14 1010.0 1009.9 35.0
 
Date/Time
EST
Temp
°C
App
Temp
°C
Dew
Point
°C
Rel
Hum
%
Delta-T
°C
Wind Press
QNH
hPa
Press
MSL
hPa
Rain since
9am
mm
Dir  Spd
km/h
Gust
km/h
Spd
kts
Gust
kts
10/11:33pm 25.2 27.6 24.2 94 0.7 ESE 19 24 10 13 1010.1 1010.0 33.4
10/11:30pm 25.3 27.7 24.3 94 0.7 ESE 19 24 10 13 1010.2 1010.1 32.8
10/11:03pm 25.3 27.0 24.1 93 0.8 SE 22 28 12 15 1010.1 1010.0 32.4
10/11:00pm 25.2 27.0 24.2 94 0.7 SE 22 28 12 15 1010.1 1010.0 32.4
10/10:48pm 25.1 27.3 24.2 95 0.6 SE 20 32 11 17 1010.3 1010.2 32.4
10/10:30pm 25.1 27.1 23.9 93 0.8 SE 20 26 11 14 1010.3 1010.2 32.0
10/10:00pm 25.1 27.0 23.8 92 0.9 SE 20 32 11 17 1010.2 1010.1 32.0
10/09:40pm 25.1 26.4 24.1 94 0.7 SE 24 32 13 17 1010.0 1009.9 32.0
10/09:30pm 25.2 27.0 24.2 94 0.7 SE 22 30 12 16 1009.9 1009.8 32.0
10/09:21pm 25.2 27.7 24.5 96 0.5 SE 19 28 10 15 1010.0 1009.9 32.0
10/09:01pm 25.3 26.8 24.4 95 0.6 ESE 24 33 13 18 1009.9 1009.8 31.8
10/09:00pm 25.4 26.9 24.4 94 0.7 ESE 24 33 13 18 1009.9 1009.8 31.8
10/08:41pm 25.1 27.3 24.2 95 0.6 ESE 20 28 11 15 1009.8 1009.7 31.8
10/08:30pm 24.8 27.4 23.9 95 0.6 ESE 17 26 9 14 1009.7 1009.6 31.6
10/08:17pm 24.2 26.0 23.5 96 0.5 ESE 20 32 11 17 1009.8 1009.7 30.0
10/08:00pm 25.5 27.8 24.5 94 0.7 ESE 20 30 11 16 1009.5 1009.4 22.4
10/07:52pm 25.5 28.4 24.5 94 0.7 SE 17 22 9 12 1009.3 1009.2 22.2
10/07:30pm 25.5 28.4 24.5 94 0.7 SE 17 20 9 11 1009.1 1009.0 22.0
10/07:18pm 25.3 29.1 24.7 96 0.4 SSE 13 17 7 9 1008.9 1008.8 22.0
10/07:00pm 25.4 28.3 24.5 95 0.6 SE 17 26 9 14 1008.9 1008.8 21.4
10/06:30pm 25.7 27.9 24.3 92 1.0 ESE 20 30 11 16 1008.5 1008.4 20.8
10/06:29pm 25.6 27.8 24.3 92 0.9 ESE 20 28 11 15 1008.5 1008.4 20.8
10/06:06pm 25.5 26.9 24.2 92 0.9 ESE 24 30 13 16 1008.2 1008.1 20.6
10/06:00pm 25.7 27.4 24.1 91 1.1 ESE 22 30 12 16 1008.1 1008.0 20.6
10/05:30pm 25.7 27.0 24.0 90 1.2 ESE 24 32 13 17 1007.8 1007.7 20.6
10/05:00pm 25.8 26.4 24.2 91 1.1 ESE 28 35 15 19 1007.6 1007.5 20.6
10/04:47pm 25.5 25.6 24.0 91 1.0 ESE 30 48 16 26 1007.3 1007.2 20.6
10/04:45pm 25.8 26.4 24.1 90 1.2 ESE 28 48 15 26 1007.3 1007.2 20.4
10/04:30pm 26.3 26.3 24.4 89 1.3 ESE 32 39 17 21 1007.2 1007.1 20.4
10/04:00pm 26.4 27.0 24.2 88 1.5 ESE 28 37 15 20 1007.3 1007.2 20.4
10/03:30pm 26.1 27.6 24.4 90 1.2 ESE 24 33 13 18 1007.6 1007.5 20.4
10/03:00pm 26.0 26.7 24.3 90 1.2 ESE 28 37 15 20 1007.7 1007.6 20.4
10/02:30pm 25.4 26.4 24.1 92 0.9 SE 26 32 14 17 1007.8 1007.7 20.4
10/02:00pm 24.8 26.1 24.1 96 0.5 SSE 24 32 13 17 1008.2 1008.1 20.0
10/01:30pm 25.2 25.9 23.7 91 1.0 ESE 26 35 14 19 1008.5 1008.4 13.8
10/01:12pm 25.3 26.9 23.8 91 1.0 ESE 22 32 12 17 1008.5 1008.4 13.6
10/01:00pm 25.1 26.3 23.8 92 0.9 SE 24 37 13 20 1008.5 1008.4 13.6
10/12:39pm 25.0 26.9 23.5 91 1.0 SE 19 28 10 15 1008.6 1008.5 13.4
10/12:30pm 24.6 27.0 23.7 95 0.6 SE 17 26 9 14 1008.9 1008.8 13.4
10/12:00pm 24.4 25.6 23.8 96 0.4 SE 24 32 13 17 1008.8 1008.7 9.4
10/11:30am 25.1 26.5 23.6 91 1.0 SSE 22 28 12 15 1009.3 1009.2 1.0
10/11:13am 25.1 26.7 23.8 92 0.9 SE 22 28 12 15 1009.2 1009.1 1.0
10/11:00am 25.3 26.9 23.8 91 1.0 SE 22 30 12 16 1009.2 1009.1 0.8
10/10:30am 24.6 25.5 23.3 92 0.9 SE 24 35 13 19 1009.2 1009.1 0.8
10/10:19am 24.8 26.6 23.6 93 0.8 SE 20 30 11 16 1009.2 1009.1 0.8
10/10:00am 24.9 26.2 23.3 91 1.1 SSE 22 26 12 14 1009.3 1009.2 0.6
10/09:30am 24.7 26.5 23.2 91 1.0 SSE 19 28 10 15 1009.5 1009.4 0.2
10/09:00am 25.1 26.0 22.7 86 1.6 SSE 22 30 12 16 1009.4 1009.3 23.2
10/08:30am 24.2 26.4 22.6 91 1.1 SSE 15 20 8 11 1009.5 1009.4 23.2
10/08:00am 23.5 25.3 22.5 94 0.7 SE 17 26 9 14 1009.4 1009.3 23.0
10/07:47am 24.2 24.9 22.3 89 1.3 SSE 22 33 12 18 1009.1 1009.0 20.0
10/07:30am 24.2 25.3 22.3 89 1.3 SE 20 26 11 14 1009.0 1008.9 20.0
10/07:00am 24.1 26.1 22.3 90 1.2 SE 15 20 8 11 1008.7 1008.6 19.8
10/06:30am 24.4 25.9 22.0 86 1.6 SE 17 26 9 14 1008.5 1008.4 19.4
10/06:00am 23.9 25.1 22.1 90 1.2 SE 19 28 10 15 1008.2 1008.1 19.4
10/05:30am 23.8 26.2 22.2 91 1.1 SSE 13 20 7 11 1007.8 1007.7 18.6
10/05:00am 23.3 25.4 22.4 95 0.6 S 15 17 8 9 1007.3 1007.2 17.4
10/04:30am 23.5 23.0 22.2 92 0.9 SSE 28 35 15 19 1007.0 1006.9 16.4
10/04:10am 23.6 24.7 22.3 92 0.9 SSE 20 28 11 15 1007.0 1006.9 16.0
10/04:00am 23.4 24.1 22.2 93 0.8 SSE 22 32 12 17 1006.7 1006.6 16.0
10/03:50am 23.5 25.5 22.3 93 0.8 SSE 15 20 8 11 1007.0 1006.9 15.8
10/03:30am 23.7 25.8 22.4 92 0.9 SSE 15 26 8 14 1006.8 1006.7 15.2
10/03:20am 23.7 25.0 22.4 92 0.9 SSE 19 28 10 15 1006.8 1006.7 15.0
10/03:09am 23.7 25.4 22.4 92 0.9 SSE 17 24 9 13 1006.9 1006.8 15.0
10/03:00am 23.7 25.8 22.5 93 0.8 SE 15 20 8 11 1007.0 1006.9 15.0
10/02:54am 23.7 25.8 22.5 93 0.8 SSE 15 22 8 12 1006.9 1006.8 14.8
10/02:34am 23.7 24.9 22.5 93 0.8 SSE 20 26 11 14 1007.0 1006.9 14.2
10/02:30am 23.7 24.5 22.5 93 0.8 SSE 22 28 12 15 1007.0 1006.9 13.4
10/02:00am 24.2 25.3 22.4 90 1.2 SSE 20 32 11 17 1007.0 1006.9 13.2
10/01:30am 24.1 24.6 22.6 91 1.0 SE 24 33 13 18 1007.3 1007.2 13.2
10/01:25am 24.0 24.5 22.7 92 0.9 SE 24 39 13 21 1007.3 1007.2 13.2
10/01:14am 24.1 24.2 22.6 91 1.0 SE 26 33 14 18 1007.4 1007.3 13.2
10/01:00am 24.6 23.9 22.5 88 1.4 SE 30 37 16 20 1007.5 1007.4 12.6
10/12:30am 24.5 25.8 22.7 90 1.2 SE 20 32 11 17 1007.9 1007.8 12.6
10/12:06am 24.0 24.2 22.8 93 0.8 SSE 26 35 14 19 1008.0 1007.9 12.4
10/12:00am 24.1 23.9 22.8 92 0.9 SSE 28 37 15 20 1008.1 1008.0 12.0
 
Date/Time
EST
Temp
°C
App
Temp
°C
Dew
Point
°C
Rel
Hum
%
Delta-T
°C
Wind Press
QNH
hPa
Press
MSL
hPa
Rain since
9am
mm
Dir  Spd
km/h
Gust
km/h
Spd
kts
Gust
kts
09/11:43pm 24.5 24.5 22.4 88 1.4 SE 26 35 14 19 1008.7 1008.6 10.0
09/11:30pm 24.5 25.9 22.6 89 1.3 SE 19 26 10 14 1008.5 1008.4 9.2
09/11:19pm 24.1 26.0 22.8 92 0.9 SE 17 22 9 12 1008.7 1008.6 9.0
09/11:00pm 24.1 23.9 22.8 92 0.9 SE 28 39 15 21 1008.9 1008.8 8.6
09/10:58pm 24.4 24.1 22.6 90 1.2 SE 28 39 15 21 1008.8 1008.7 7.2
09/10:30pm 26.1 24.5 21.6 76 3.0 SE 32 41 17 22 1008.8 1008.7 6.0
09/10:00pm 25.8 25.2 21.9 79 2.6 SE 28 35 15 19 1008.5 1008.4 6.0
09/09:30pm 25.7 25.1 22.0 80 2.5 SSE 28 41 15 22 1008.4 1008.3 6.0
09/09:00pm 25.7 24.8 22.1 80 2.4 SE 30 39 16 21 1007.9 1007.8 6.0
09/08:30pm 26.0 24.9 21.8 77 2.8 SSE 30 39 16 21 1007.9 1007.8 6.0
09/08:00pm 25.9 25.3 22.0 79 2.6 SE 28 39 15 21 1007.8 1007.7 6.0
09/07:30pm 25.6 24.4 22.2 81 2.3 SE 32 50 17 27 1007.6 1007.5 6.0
09/07:00pm 25.4 25.4 22.4 83 2.0 SE 26 35 14 19 1007.5 1007.4 6.0
09/06:30pm 25.4 25.5 22.6 84 1.9 SE 26 39 14 21 1007.5 1007.4 6.0
09/06:00pm 25.3 25.2 22.9 86 1.6 SE 28 35 15 19 1007.2 1007.1 5.8
09/05:42pm 26.2 25.6 22.7 81 2.4 SE 30 52 16 28 1006.9 1006.8 5.8
09/05:30pm 26.7 26.7 22.4 77 2.9 SE 26 33 14 18 1006.6 1006.5 5.8
09/05:00pm 26.5 26.7 22.7 79 2.6 SE 26 37 14 20 1006.6 1006.5 5.8
09/04:30pm 26.3 27.2 22.6 80 2.5 SE 22 30 12 16 1006.3 1006.2 5.8
09/04:00pm 26.2 25.1 22.5 80 2.5 SE 32 41 17 22 1006.1 1006.0 5.8
09/03:30pm 26.1 26.2 22.5 80 2.4 SE 26 37 14 20 1006.2 1006.1 5.8
09/03:00pm 25.8 26.5 22.9 84 2.0 SSE 24 33 13 18 1006.1 1006.0 5.8
09/02:30pm 25.6 25.4 22.8 84 1.9 SE 28 39 15 21 1006.5 1006.4 5.8
09/02:00pm 25.2 25.9 23.0 87 1.5 SE 24 33 13 18 1007.0 1006.9 5.8
09/01:30pm 25.3 26.0 22.9 86 1.6 SE 24 30 13 16 1007.2 1007.1 5.2
09/01:00pm 24.7 25.1 23.1 91 1.1 SSE 26 33 14 18 1007.5 1007.4 4.6
09/12:37pm 24.7 25.5 23.2 91 1.0 SSE 24 32 13 17 1007.6 1007.5 4.0
09/12:30pm 24.5 25.0 23.3 93 0.8 SE 26 39 14 21 1007.8 1007.7 3.8
09/12:14pm 24.7 24.7 23.1 91 1.1 SE 28 37 15 20 1008.1 1008.0 2.0
09/12:00pm 25.1 24.8 22.6 86 1.7 SE 28 37 15 20 1008.0 1007.9 0.8
09/11:30am 25.0 24.5 22.8 87 1.5 SE 30 43 16 23 1008.1 1008.0 0.4
09/11:00am 25.1 25.6 22.0 83 2.1 SSE 22 32 12 17 1007.9 1007.8 0.0
09/10:30am 25.0 25.9 21.9 83 2.1 SSE 20 32 11 17 1008.0 1007.9 0.0
09/10:00am 24.8 25.7 22.0 84 1.9 SSE 20 28 11 15 1008.0 1007.9 0.0
09/09:30am 24.2 23.6 21.3 84 1.9 SSE 26 32 14 17 1008.0 1007.9 0.0
09/09:00am 23.7 24.5 21.7 88 1.3 S 20 28 11 15 1008.4 1008.3 5.4
09/08:30am 23.3 24.1 21.3 88 1.3 SSE 19 26 10 14 1008.5 1008.4 5.0
09/08:00am 23.0 23.6 21.3 90 1.1 SSE 20 32 11 17 1008.7 1008.6 4.4
09/07:30am 23.4 24.2 21.3 88 1.4 S 19 26 10 14 1008.5 1008.4 3.2
09/07:00am 23.5 24.0 21.2 87 1.5 SSE 20 28 11 15 1008.2 1008.1 2.6
09/06:30am 24.3 24.5 20.6 80 2.4 SSE 20 28 11 15 1008.0 1007.9 2.4
09/06:00am 23.7 24.7 21.0 85 1.8 S 17 20 9 11 1007.6 1007.5 2.4
09/05:30am 23.7 24.6 20.8 84 1.9 SSE 17 22 9 12 1007.3 1007.2 2.2
09/05:00am 23.7 24.0 20.8 84 1.9 SSE 20 26 11 14 1007.1 1007.0 2.2
09/04:30am 23.5 24.4 20.9 85 1.7 SSE 17 20 9 11 1007.1 1007.0 2.2
09/04:00am 23.7 24.2 20.8 84 1.9 SSE 19 28 10 15 1007.0 1006.9 1.8
09/03:30am 23.5 24.9 21.1 86 1.6 SSE 15 20 8 11 1007.0 1006.9 1.4
09/03:00am 23.6 24.0 20.9 85 1.8 SSE 20 33 11 18 1006.9 1006.8 0.6
09/02:30am 24.2 23.7 20.7 81 2.3 SSE 24 30 13 16 1006.9 1006.8 0.2
09/02:00am 25.5 23.8 19.8 70 3.7 S 28 37 15 20 1007.1 1007.0 0.2
09/01:30am 26.3 23.9 19.2 65 4.6 S 30 39 16 21 1007.2 1007.1 0.2
09/01:00am 26.8 23.6 18.7 61 5.2 S 33 44 18 24 1007.3 1007.2 0.2
09/12:30am 26.8 23.6 18.7 61 5.2 S 33 41 18 22 1007.6 1007.5 0.2
09/12:00am 27.0 24.0 18.6 60 5.4 S 32 41 17 22 1007.9 1007.8 0.2
 
Date/Time
EST
Temp
°C
App
Temp
°C
Dew
Point
°C
Rel
Hum
%
Delta-T
°C
Wind Press
QNH
hPa
Press
MSL
hPa
Rain since
9am
mm
Dir  Spd
km/h
Gust
km/h
Spd
kts
Gust
kts
08/11:30pm 27.3 24.3 18.6 59 5.6 SSE 32 43 17 23 1008.5 1008.4 0.2
08/11:00pm 27.4 24.4 18.7 59 5.6 SSE 32 44 17 24 1008.7 1008.6 0.2
08/10:30pm 27.6 24.9 18.5 57 5.8 S 30 39 16 21 1008.8 1008.7 0.2
08/10:00pm 27.7 25.9 18.7 58 5.8 SSE 26 37 14 20 1009.1 1009.0 0.2
08/09:30pm 26.4 28.6 20.5 70 3.9 SE 9 11 5 6 1009.0 1008.9 0.2
08/09:00pm 26.2 28.5 20.7 71 3.6 ESE 9 11 5 6 1008.9 1008.8 0.2
08/08:30pm 26.5 27.5 20.2 68 4.1 ESE 15 19 8 10 1008.7 1008.6 0.2
08/08:00pm 27.0 27.8 19.8 64 4.7 SSE 15 26 8 14 1008.8 1008.7 0.2
08/07:30pm 26.5 28.0 20.6 70 3.9 ESE 13 17 7 9 1008.8 1008.7 0.2
08/07:00pm 27.3 27.9 19.4 62 5.1 SSE 15 20 8 11 1008.5 1008.4 0.2
08/06:30pm 27.4 27.4 19.0 60 5.4 S 17 24 9 13 1008.4 1008.3 0.2
08/06:00pm 27.2 26.5 19.5 62 5.0 S 22 30 12 16 1008.2 1008.1 0.2
08/05:30pm 27.1 27.1 19.7 64 4.8 S 19 26 10 14 1008.0 1007.9 0.2
08/05:00pm 26.4 27.2 20.6 70 3.8 SSE 17 26 9 14 1007.9 1007.8 0.2
08/04:30pm 25.1 28.1 22.0 83 2.1 SE 9 13 5 7 1008.0 1007.9 0.2
08/04:00pm 24.7 26.8 21.7 83 2.0 SSE 13 19 7 10 1008.2 1008.1 0.2
08/03:48pm 24.3 25.9 22.1 87 1.5 SE 17 24 9 13 1008.2 1008.1 0.2
08/03:42pm 24.5 25.2 22.3 87 1.5 SE 22 30 12 16 1008.5 1008.4 0.2
08/03:30pm 24.8 24.2 22.0 84 1.9 SE 28 37 15 20 1008.7 1008.6 0.0
08/03:23pm 25.4 24.4 21.3 78 2.7 SE 28 39 15 21 1008.7 1008.6 0.0
08/03:00pm 29.2 28.0 18.3 51 7.0 S 22 32 12 17 1008.0 1007.9 0.0
08/02:30pm 29.4 28.6 18.5 52 7.0 S 20 30 11 16 1008.3 1008.2 0.0

Other Formats:

Comma delimited format used in spreadsheet applications
http://www.bom.gov.au/fwo/IDQ60801/IDQ60801.94294.axf

JavaScript Object Notation format (JSON) in row-major order
http://www.bom.gov.au/fwo/IDQ60801/IDQ60801.94294.json